Bacliff, Texas
Current Conditions -  °F | °C
As of 6:50 PM on Sunday 21 Dec 2014 (Local Time) from KEFD Reporting Station
Broken Clouds Broken Clouds  
Wind Chill: 55°   Ceiling: 7000
Heat Index: 55°   Visibility: 9mi
Dew Point: 52°   Wind: 7mph
Humidity: 88%   Direction: 130°SE
Pressure: 29.95"   Gusts: NA
Location:  29.51°N, 94.99°W
Report Text: KEFD 220050Z 13006KT 9SM FEW020 BKN070 13/11 A2995
Loading
Personal Weather Stations






























Interactive Weather Map New forecast layout! Learn more

10-Day Weather Forecast

Advertisements
Track Severe Weather on mobile